Weather observations for the past three days for
Salida - Monarch Pass
Imperial (Metric)
Date Time (mdt) Wind (mph) Vis. (mi.) Weather Sky Cond. Temperature (ºF) Relative Humidity Wind Chill (°F) Heat Index (°F) Pressure Precipitation (in)
Air Dwpt 6 hour altimeter (in) sea level (mb) 1 hr 3 hr 6 hr
Max. Min.
10 13:15 E 7 10.00 Mostly Cloudy SCT046 BKN055 42.8 26.6 53% 39 30.59 0.0
10 12:55 E 12 10.00 Mostly Cloudy SCT048 BKN055 42.8 26.6 53% 37 30.59 0.0
10 12:35 Calm 10.00 Mostly Cloudy SCT046 BKN055 42.8 24.8 49% 30.59 0.0
10 12:15 E 7 10.00 Mostly Cloudy SCT043 BKN049 BKN055 42.8 26.6 53% 39 30.59 0.0
10 11:55 E 8 10.00 Mostly Cloudy BKN047 BKN060 42.8 28.4 57% 39 30.59 0.0
10 11:35 SW 3 10.00 Partly Cloudy SCT047 SCT060 41 21.2 45% 30.59 0.0
10 11:15 NW 6 10.00 Partly Cloudy SCT037 39.2 23 52% 36 30.59 0.0
10 10:55 Calm 10.00 Fair CLR 37.4 23 56% 30.58 0.0
10 10:35 SW 3 10.00 Fair CLR 35.6 24.8 65% 30.58 0.0
10 10:15 W 3 10.00 Fair CLR 35.6 28.4 75% 30.58 0.0
10 09:55 Calm 10.00 Fair CLR 35.6 28.4 75% 30.57 0.0
10 09:35 SE 6 10.00 Partly Cloudy SCT011 33.8 30.2 87% 29 30.57 0.0
10 09:15 SE 6 10.00 Fair CLR 32 30.2 93% 27 30.56 0.0
10 08:55 E 8 10.00 Fair CLR 32 30.2 93% 25 30.56 0.0
10 08:35 Calm 10.00 Fair CLR 32 23 69% 30.55 0.0
10 08:15 NW 6 10.00 Partly Cloudy SCT001 28.4 28.4 100% 23 30.54 0.0
10 07:55 E 3 0.00 Mostly Cloudy BKN002 30.2 30.2 100% 30.54 0.0
10 07:35 E 7 0.00 Overcast OVC002 28.4 28.4 100% 22 30.53 0.0
10 07:15 E 10 0.00 Overcast OVC002 28.4 28.4 100% 20 30.52 0.0
10 06:55 E 12 0.00 Overcast OVC002 28.4 28.4 100% 19 30.52 0.0
10 06:35 E 14 0.00 Overcast OVC002 30.2 30.2 100% 21 30.51 0.0
10 06:15 E 14 0.00 Overcast OVC002 30.2 30.2 100% 21 30.51 0.0
10 05:55 E 16 0.00 Overcast OVC002 30.2 30.2 100% 20 30.5 0.0
10 05:35 E 18 0.00 Overcast OVC002 30.2 30.2 100% 19 30.49 0.0
10 05:15 E 20 0.00 Overcast OVC002 30.2 30.2 100% 19 30.48 0.0
10 04:55 E 23 0.00 Overcast and Breezy OVC002 30.2 30.2 100% 18 30.48 0.0
10 04:35 E 21 0.00 Overcast and Breezy OVC002 30.2 30.2 100% 18 30.48 0.0
10 04:15 E 22 0.15 Freezing Fog and Breezy OVC002 30.2 30.2 100% 18 30.48 0.0
10 03:55 E 22 0.15 Freezing Fog and Breezy OVC002 30.2 30.2 100% 18 30.48 0.0
10 03:35 E 23 0.15 Freezing Fog and Breezy OVC002 30.2 30.2 100% 18 30.47 0.0
10 03:15 E 25 0.15 Freezing Fog and Breezy OVC002 30.2 30.2 100% 17 30.46 0.0
10 02:55 E 25 0.15 Freezing Fog and Breezy OVC002 30.2 30.2 100% 17 30.46 0.0
10 02:35 E 24 0.15 Freezing Fog and Breezy OVC002 32 30.2 93% 20 30.47 0.0
10 02:15 E 25 0.50 Freezing Fog and Breezy OVC002 32 30.2 93% 19 30.46 0.0
10 01:55 E 28 10.00 Mostly Cloudy and Windy SCT004 BKN009 BKN013 32 28.4 87% 19 30.46 0.0
10 01:35 E 30 10.00 Fair and Windy CLR 32 23 69% 18 30.45 0.0
10 01:15 E 24 10.00 Fair and Breezy CLR 32 21.2 64% 20 30.46 0.0
10 00:55 E 22 10.00 Fair and Breezy CLR 33.8 19.4 56% 23 30.46 0.0
10 00:35 E 20 10.00 Fair CLR 33.8 17.6 51% 23 30.47 0.0
10 00:15 E 17 10.00 Fair CLR 35.6 15.8 44% 26 30.47 0.0
09 23:55 E 15 10.00 Partly Cloudy SCT090 35.6 12.2 38% 27 30.47 0.0
09 23:35 E 20 G 23 10.00 Fair CLR 37.4 10.4 33% 28 30.46 0.0
09 23:15 NE 8 10.00 Fair CLR 37.4 10.4 33% 32 30.48 0.0
09 22:55 NE 7 10.00 Partly Cloudy SCT080 37.4 8.6 30% 33 30.48 0.0
09 22:35 NE 9 10.00 Fair CLR 37.4 6.8 28% 31 30.48 0.0
09 22:15 NE 8 10.00 Fair CLR 37.4 5 26% 32 30.48 0.0
09 21:55 N 12 10.00 Fair CLR 39.2 5 24% 33 30.48 0.0
09 21:35 N 16 G 21 10.00 Fair CLR 37.4 5 26% 29 30.48 0.0
09 21:15 NW 17 G 22 10.00 Fair CLR 39.2 5 24% 31 30.47 0.0
09 20:55 NW 16 10.00 Fair CLR 39.2 5 24% 31 30.46 0.0
09 20:35 NW 17 10.00 Fair CLR 39.2 3.2 22% 31 30.45 0.0
09 20:15 NW 17 G 23 10.00 Fair CLR 41 3.2 20% 33 30.45 0.0
09 19:55 NW 17 G 26 10.00 Fair CLR 41 3.2 20% 33 30.44 0.0
09 19:35 NW 17 G 25 10.00 Fair CLR 41 5 22% 33 30.43 0.0
09 19:15 NW 23 G 28 10.00 Fair and Breezy CLR 41 5 22% 32 30.43 0.0
09 18:55 NW 20 10.00 Fair CLR 42.8 8.6 24% 35 30.43 0.0
09 18:35 NW 23 G 29 10.00 Fair and Breezy CLR 42.8 8.6 24% 34 30.42 0.0
09 18:15 NW 22 G 35 10.00 Fair and Breezy CLR 42.8 8.6 24% 34 30.43 0.0
09 17:55 NW 24 G 40 10.00 Fair and Breezy CLR 42.8 8.6 24% 34 30.43 0.0
09 17:35 NW 28 G 36 10.00 Fair and Windy CLR 42.8 12.2 29% 33 30.42 0.0
09 17:15 NW 35 G 40 10.00 Partly Cloudy and Windy SCT080 44.6 12.2 27% 35 30.41 0.0
09 16:55 NW 30 G 35 10.00 Fair and Windy CLR 44.6 14 29% 35 30.42 0.0
09 16:35 NW 31 G 37 10.00 Partly Cloudy and Windy SCT110 44.6 12.2 27% 35 30.41 0.0
09 16:15 NW 35 G 45 10.00 Partly Cloudy and Windy SCT110 44.6 14 29% 35 30.41 0.0
09 15:55 NW 38 G 43 10.00 Partly Cloudy and Windy SCT100 44.6 12.2 27% 34 30.41 0.0
09 15:35 NW 35 G 40 10.00 Mostly Cloudy and Windy SCT090 BKN110 44.6 12.2 27% 35 30.41 0.0
09 15:15 NW 32 G 45 10.00 Overcast and Windy OVC085 44.6 12.2 27% 35 30.42 0.0
09 14:55 NW 30 G 41 10.00 Overcast and Windy BKN085 OVC110 42.8 14 31% 33 30.43 0.0
09 14:35 NW 31 G 40 10.00 Mostly Cloudy and Windy SCT085 BKN100 BKN120 44.6 14 29% 35 30.43 0.0
09 14:15 W 25 G 33 10.00 Mostly Cloudy and Breezy SCT075 BKN085 44.6 15.8 31% 36 30.43 0.0
09 13:55 NW 23 G 31 10.00 Partly Cloudy and Breezy SCT075 44.6 15.8 31% 37 30.44 0.0
09 13:35 NW 36 G 46 10.00 Partly Cloudy and Windy SCT075 44.6 15.8 31% 35 30.43 0.0
09 13:15 NW 29 G 43 10.00 Fair and Windy CLR 44.6 14 29% 36 30.44 0.0
09 12:55 NW 31 G 47 10.00 Partly Cloudy and Windy SCT075 42.8 19.4 39% 33 30.43 0.0
09 12:35 NW 21 G 41 10.00 Partly Cloudy and Breezy SCT055 SCT065 42.8 19.4 39% 35 30.43 0.0
09 12:15 NW 29 G 39 10.00 Partly Cloudy and Windy SCT060 SCT070 42.8 21.2 42% 33 30.43 0.0
09 11:55 NW 32 G 40 10.00 Fair and Windy CLR 41 21.2 45% 30 30.43 0.0
09 11:35 NW 29 G 43 10.00 Fair and Windy CLR 41 21.2 45% 31 30.43 0.0
09 11:15 W 24 G 43 10.00 Fair and Breezy CLR 41 21.2 45% 32 30.43 0.0
09 10:55 NW 31 G 44 10.00 Fair and Windy CLR 39.2 21.2 48% 28 30.43 0.0
09 10:35 W 35 G 43 10.00 Fair and Windy CLR 37.4 21.2 52% 25 30.42 0.0
09 10:15 NW 28 G 40 10.00 Fair and Windy CLR 37.4 21.2 52% 26 30.43 0.0
09 09:55 W 18 G 29 10.00 Fair CLR 37.4 21.2 52% 28 30.43 0.0
09 09:35 W 24 G 28 10.00 Fair and Breezy CLR 35.6 23 60% 24 30.42 0.0
09 09:15 NW 29 G 33 10.00 Fair and Windy CLR 33.8 23 65% 21 30.43 0.0
09 08:55 W 25 G 30 10.00 Fair and Breezy CLR 33.8 23 65% 22 30.42 0.0
09 08:35 W 21 G 26 10.00 Fair and Breezy CLR 33.8 21.2 60% 23 30.42 0.0
09 08:15 NW 17 10.00 Fair CLR 33.8 21.2 60% 24 30.42 0.0
09 07:55 NW 22 10.00 Fair and Breezy CLR 32 21.2 64% 20 30.41 0.0
09 07:35 W 26 10.00 Fair and Windy CLR 32 21.2 64% 19 30.41 0.0
09 07:15 NW 28 10.00 Fair and Windy CLR 32 21.2 64% 19 30.4 0.0
09 06:55 NW 25 10.00 Fair and Breezy CLR 32 21.2 64% 19 30.4 0.0
09 06:35 NW 29 G 32 10.00 Fair and Windy CLR 32 21.2 64% 19 30.39 0.0
09 06:15 NW 30 10.00 Fair and Windy CLR 32 21.2 64% 18 30.38 0.0
09 05:55 NW 28 10.00 Fair and Windy CLR 32 21.2 64% 19 30.38 0.0
09 05:35 NW 30 10.00 Fair and Windy CLR 32 21.2 64% 18 30.37 0.0
09 05:15 W 30 10.00 Fair and Windy CLR 32 21.2 64% 18 30.37 0.0
09 04:55 NW 32 10.00 Fair and Windy CLR 32 21.2 64% 18 30.36 0.0
09 04:35 NW 29 10.00 Fair and Windy CLR 32 21.2 64% 19 30.36 0.0
09 04:15 NW 30 10.00 Fair and Windy CLR 32 21.2 64% 18 30.37 0.0
09 03:55 W 31 10.00 Fair and Windy CLR 33.8 21.2 60% 21 30.36 0.0
09 03:35 W 30 10.00 Fair and Windy CLR 33.8 21.2 60% 21 30.36 0.0
09 03:15 W 30 10.00 Fair and Windy CLR 33.8 21.2 60% 21 30.37 0.0
09 02:55 NW 25 10.00 Fair and Breezy CLR 33.8 19.4 56% 22 30.38 0.0
09 02:35 W 20 10.00 Fair CLR 33.8 19.4 56% 23 30.39 0.0
09 02:15 NW 26 10.00 Fair and Windy CLR 35.6 21.2 56% 24 30.39 0.0
09 01:55 NW 24 10.00 Fair and Breezy CLR 35.6 19.4 52% 24 30.39 0.0
09 01:35 W 23 10.00 Fair and Breezy CLR 35.6 19.4 52% 25 30.41 0.0
09 01:15 W 22 10.00 Fair and Breezy CLR 35.6 19.4 52% 25 30.41 0.0
09 00:55 W 21 10.00 Partly Cloudy and Breezy SCT065 35.6 19.4 52% 25 30.42 0.0
09 00:35 W 20 10.00 Mostly Cloudy BKN065 35.6 19.4 52% 26 30.43 0.0
09 00:15 W 18 10.00 Mostly Cloudy BKN065 35.6 19.4 52% 26 30.43 0.0
08 23:55 NW 17 10.00 Mostly Cloudy BKN065 37.4 19.4 48% 29 30.43 0.0
08 23:35 W 17 10.00 Partly Cloudy SCT065 37.4 19.4 48% 29 30.43 0.0
08 23:15 NW 21 10.00 Fair and Breezy CLR 37.4 19.4 48% 28 30.44 0.0
08 22:55 NW 21 10.00 Fair and Breezy CLR 37.4 19.4 48% 28 30.45 0.0
08 22:35 NW 23 10.00 Fair and Breezy CLR 37.4 19.4 48% 27 30.45 0.0
08 22:15 NW 23 10.00 Fair and Breezy CLR 37.4 19.4 48% 27 30.45 0.0
08 21:55 NW 24 G 31 10.00 Fair and Breezy CLR 37.4 19.4 48% 27 30.45 0.0
08 21:35 NW 26 10.00 Fair and Windy CLR 37.4 19.4 48% 26 30.44 0.0
08 21:15 NW 24 G 28 10.00 Fair and Breezy CLR 39.2 19.4 45% 29 30.43 0.0
08 20:55 NW 23 G 29 10.00 Fair and Breezy CLR 39.2 19.4 45% 29 30.43 0.0
08 20:35 NW 22 G 32 10.00 Fair and Breezy CLR 41 17.6 39% 32 30.43 0.0
08 20:15 NW 29 10.00 Fair and Windy CLR 41 19.4 42% 31 30.41 0.0
08 19:55 W 35 10.00 Partly Cloudy and Windy SCT070 41 19.4 42% 30 30.41 0.0
08 19:36 W 30 G 37 10.00 Partly Cloudy and Windy SCT070 42.8 19.4 39% 33 30.41 0.0
08 19:15 NW 29 G 33 10.00 Partly Cloudy and Windy SCT070 42.8 19.4 39% 33 30.41 0.0
08 18:55 NW 28 G 41 10.00 Fair and Windy CLR 42.8 17.6 36% 33 30.41 0.0
08 18:35 NW 33 G 44 10.00 Partly Cloudy and Windy SCT070 44.6 17.6 34% 35 30.4 0.0
08 18:15 W 28 G 40 10.00 Partly Cloudy and Windy SCT070 44.6 17.6 34% 36 30.4 0.0
08 17:55 W 29 G 36 10.00 Partly Cloudy and Windy SCT070 SCT080 44.6 19.4 37% 36 30.4 0.0
08 17:35 W 39 G 47 10.00 Mostly Cloudy and Windy BKN070 BKN080 44.6 19.4 37% 34 30.39 0.0
08 17:15 W 29 G 44 10.00 Mostly Cloudy and Windy SCT070 BKN080 44.6 19.4 37% 36 30.39 0.0
08 16:55 W 23 G 43 10.00 Mostly Cloudy and Breezy BKN070 BKN080 44.6 19.4 37% 37 30.39 0.0
08 16:35 NW 33 G 44 10.00 Mostly Cloudy and Windy BKN060 44.6 19.4 37% 35 30.39 0.0
08 16:15 W 30 G 36 10.00 Mostly Cloudy and Windy SCT060 BKN070 BKN090 44.6 21.2 39% 35 30.39 0.0
08 15:55 NW 13 G 31 10.00 Mostly Cloudy BKN070 BKN080 46.4 19.4 34% 41 30.4 0.0
08 15:35 W 15 G 38 10.00 Mostly Cloudy SCT060 BKN070 44.6 21.2 39% 38 30.4 0.0
08 15:15 W 15 G 32 10.00 Mostly Cloudy SCT070 BKN080 44.6 21.2 39% 38 30.4 0.0
08 14:55 NW 26 G 37 10.00 Partly Cloudy and Windy SCT065 42.8 21.2 42% 34 30.41 0.0
08 14:35 NW 20 G 28 10.00 Partly Cloudy SCT060 SCT080 44.6 19.4 37% 37 30.41 0.0
08 14:15 NW 22 G 32 10.00 Mostly Cloudy and Breezy SCT060 BKN080 42.8 19.4 39% 34 30.41 0.0
08 13:55 W 25 G 35 10.00 Partly Cloudy and Breezy SCT060 42.8 21.2 42% 34 30.41 0.0
08 13:35 NW 24 G 35 10.00 Fair and Breezy CLR 42.8 21.2 42% 34 30.41 0.0
08 13:15 NW 24 G 38 10.00 Partly Cloudy and Breezy SCT060 42.8 21.2 42% 34 30.4 0.0
08 12:55 NW 28 G 32 10.00 Partly Cloudy and Windy SCT050 41 23 49% 31 30.4 0.0
08 12:35 W 18 G 30 10.00 Partly Cloudy BKN050 SCT060 41 23 49% 33 30.41 0.0
08 12:15 W 20 G 29 10.00 Mostly Cloudy SCT042 BKN050 BKN060 41 23 49% 33 30.41 0.0
08 11:55 W 26 G 33 10.00 Mostly Cloudy and Windy SCT041 BKN048 BKN060 39.2 24.8 56% 29 30.41 0.0
08 11:35 NW 22 G 28 10.00 Partly Cloudy and Breezy SCT040 SCT048 37.4 24.8 60% 27 30.41 0.0
08 11:15 W 18 G 26 10.00 Partly Cloudy SCT039 SCT047 SCT050 37.4 26.6 65% 28 30.41 0.0
08 10:55 W 17 G 24 10.00 Mostly Cloudy SCT034 BKN041 BKN047 37.4 24.8 60% 29 30.41 0.0
08 10:35 W 21 G 25 10.00 Mostly Cloudy and Breezy SCT031 BKN042 BKN049 35.6 24.8 65% 25 30.41 0.0
08 10:15 W 15 G 26 10.00 Mostly Cloudy SCT031 BKN041 BKN047 35.6 23 60% 27 30.41 0.0
08 09:55 W 28 G 37 10.00 Mostly Cloudy and Windy BKN040 BKN048 35.6 23 60% 24 30.39 0.0
08 09:35 NW 28 G 36 10.00 Partly Cloudy and Windy SCT038 SCT048 33.8 23 65% 21 30.39 0.0
08 09:15 W 20 G 31 10.00 Partly Cloudy SCT038 33.8 23 65% 23 30.39 0.0
08 08:55 NW 26 G 31 10.00 Fair and Windy CLR 32 23 69% 19 30.38 0.0
08 08:35 W 24 G 33 10.00 Fair and Breezy CLR 32 23 69% 20 30.38 0.0
08 08:15 W 25 10.00 Fair and Breezy CLR 32 21.2 64% 19 30.39 0.0
08 07:55 W 22 10.00 Fair and Breezy CLR 32 21.2 64% 20 30.39 0.0
08 07:35 NW 25 G 29 10.00 Fair and Breezy CLR 30.2 21.2 69% 17 30.39 0.0
08 07:15 NW 24 10.00 Fair and Breezy CLR 30.2 21.2 69% 17 30.38 0.0
08 06:55 NW 30 G 37 10.00 Fair and Windy CLR 30.2 21.2 69% 16 30.36 0.0
08 06:35 NW 31 10.00 Fair and Windy CLR 30.2 23 75% 16 30.36 0.0
08 06:15 NW 31 10.00 Fair and Windy CLR 30.2 23 75% 16 30.36 0.0
08 05:55 NW 30 10.00 Fair and Windy CLR 30.2 23 75% 16 30.34 0.0
08 05:35 NW 29 10.00 Fair and Windy CLR 30.2 23 75% 16 30.35 0.0
08 05:15 NW 30 10.00 Fair and Windy CLR 30.2 23 75% 16 30.34 0.0
08 04:55 NW 31 G 37 10.00 Fair and Windy CLR 30.2 23 75% 16 30.35 0.0
08 04:35 NW 31 10.00 Fair and Windy CLR 30.2 23 75% 16 30.34 0.0
08 04:15 NW 29 10.00 Fair and Windy CLR 30.2 23 75% 16 30.35 0.0
08 03:55 NW 28 10.00 Fair and Windy CLR 30.2 23 75% 17 30.35 0.0
08 03:35 NW 32 G 38 10.00 Partly Cloudy and Windy SCT050 32 23 69% 18 30.35 0.0
08 03:15 NW 31 10.00 Fair and Windy CLR 32 23 69% 18 30.36 0.0
08 02:55 NW 30 G 33 10.00 Partly Cloudy and Windy SCT060 30.2 23 75% 16 30.35 0.0
08 02:35 NW 29 10.00 Partly Cloudy and Windy SCT060 32 23 69% 19 30.36 0.0
08 02:15 NW 26 G 33 10.00 Fair and Windy CLR 32 23 69% 19 30.36 0.0
08 01:55 NW 33 10.00 Fair and Windy CLR 30.2 23 75% 15 30.36 0.0
08 01:35 NW 31 10.00 Partly Cloudy and Windy SCT050 SCT070 30.2 23 75% 16 30.36 0.0
08 01:15 NW 30 10.00 Mostly Cloudy and Windy SCT044 BKN050 BKN070 32 23 69% 18 30.38 0.0
08 00:55 NW 30 G 37 10.00 Fair and Windy CLR 32 23 69% 18 30.38 0.0
08 00:35 NW 31 G 36 10.00 Partly Cloudy and Windy SCT042 32 23 69% 18 30.38 0.0
08 00:15 NW 31 G 38 10.00 Partly Cloudy and Windy SCT039 SCT045 SCT060 32 23 69% 18 30.38 0.0
07 23:55 NW 31 G 37 10.00 Partly Cloudy and Windy SCT048 SCT060 SCT070 32 23 69% 18 30.38 0.0
07 23:35 NW 22 G 30 10.00 Partly Cloudy and Breezy SCT034 32 23 69% 20 30.4 0.0
07 23:15 NW 23 G 31 10.00 Fair and Breezy CLR 32 23 69% 20 30.39 0.0
07 22:55 NW 26 G 32 10.00 Partly Cloudy and Windy SCT070 32 23 69% 19 30.39 0.0
07 22:35 NW 29 G 35 10.00 Partly Cloudy and Windy SCT050 SCT070 32 23 69% 19 30.39 0.0
07 22:15 NW 21 G 31 10.00 Mostly Cloudy and Breezy SCT036 SCT046 BKN055 32 23 69% 21 30.41 0.0
07 21:55 NW 22 G 26 10.00 Mostly Cloudy and Breezy SCT040 SCT048 BKN060 32 21.2 64% 20 30.41 0.0
07 21:35 W 21 10.00 Overcast and Breezy BKN040 BKN048 OVC080 33.8 21.2 60% 23 30.41 0.0
07 21:15 W 18 10.00 Overcast BKN042 OVC048 33.8 23 65% 24 30.41 0.0
07 20:55 NW 21 10.00 Overcast and Breezy BKN045 OVC050 33.8 23 65% 23 30.4 0.0
07 20:35 NW 22 G 31 10.00 Overcast and Breezy SCT043 SCT049 OVC075 33.8 21.2 60% 23 30.39 0.0
07 20:15 NW 25 10.00 Overcast and Breezy SCT060 OVC070 33.8 23 65% 22 30.38 0.0
07 19:55 NW 26 G 35 10.00 Partly Cloudy and Windy SCT060 SCT070 33.8 23 65% 22 30.38 0.0
07 19:35 NW 28 G 37 10.00 Partly Cloudy and Windy SCT060 35.6 23 60% 24 30.38 0.0
07 19:15 NW 31 10.00 Partly Cloudy and Windy SCT042 SCT050 SCT075 35.6 23 60% 23 30.38 0.0
07 18:55 NW 21 G 30 10.00 Mostly Cloudy and Breezy BKN075 35.6 23 60% 25 30.38 0.0
07 18:35 NW 30 G 38 10.00 Mostly Cloudy and Windy SCT060 BKN075 35.6 21.2 56% 23 30.38 0.0
07 18:15 NW 28 G 39 10.00 Overcast and Windy SCT050 BKN060 OVC070 35.6 19.4 52% 24 30.38 0.0
07 17:55 NW 30 G 33 10.00 Overcast and Windy BKN060 OVC070 35.6 21.2 56% 23 30.38 0.0
07 17:35 NW 24 G 31 10.00 Overcast and Breezy SCT048 SCT060 OVC075 35.6 19.4 52% 24 30.38 0.0
07 17:15 NW 21 G 28 10.00 Mostly Cloudy and Breezy SCT046 BKN055 BKN075 35.6 21.2 56% 25 30.38 0.0
07 16:55 W 28 G 44 10.00 Mostly Cloudy and Windy SCT044 SCT055 BKN065 35.6 21.2 56% 24 30.36 0.0
07 16:35 W 26 G 31 10.00 Mostly Cloudy and Windy SCT042 SCT060 BKN065 35.6 23 60% 24 30.37 0.0
07 16:15 NW 29 G 39 10.00 Partly Cloudy and Windy SCT050 SCT055 35.6 23 60% 24 30.38 0.0
07 15:55 W 36 G 46 10.00 Partly Cloudy and Windy SCT041 SCT048 SCT065 35.6 23 60% 22 30.37 0.0
07 15:35 W 32 G 47 10.00 Mostly Cloudy and Windy SCT038 BKN043 BKN050 35.6 23 60% 23 30.38 0.0
07 15:15 NW 31 G 38 10.00 Mostly Cloudy and Windy SCT038 BKN047 BKN060 35.6 23 60% 23 30.38 0.0
07 14:55 W 20 G 35 10.00 Mostly Cloudy SCT031 BKN038 BKN047 35.6 23 60% 26 30.38 0.0
07 14:35 SW 20 G 26 10.00 Overcast SCT031 BKN038 OVC046 33.8 24.8 70% 23 30.39 0.0
07 14:15 W 21 G 30 10.00 Mostly Cloudy and Breezy SCT029 SCT036 BKN045 33.8 23 65% 23 30.4 0.0
07 13:55 W 18 G 24 10.00 Partly Cloudy SCT026 SCT031 32 23 69% 21 30.4 0.0
07 13:35 W 18 G 30 10.00 Fair CLR 32 23 69% 21 30.4 0.0
Date Time (mdt) Wind (mph) Vis. (mi.) Weather Sky Cond. Air Dwpt Max. Min. Relative Humidity Wind Chill (°F) Heat Index (°F) altimeter (in) sea level (mb) 1 hr 3 hr 6 hr
6 hour
Temperature (ºF) Pressure Precipitation (in)